createdAt,value
2019-05-18T00:00:42.840Z,1.73
2019-05-18T00:03:13.852Z,1.30
2019-05-18T00:05:44.626Z,3.33
2019-05-18T00:08:15.200Z,3.13
2019-05-18T00:10:46.075Z,3.53
2019-05-18T00:13:16.982Z,3.53
2019-05-18T00:15:47.580Z,4.80
2019-05-18T00:18:18.588Z,7.57
2019-05-18T00:20:49.236Z,4.00
2019-05-18T00:23:23.065Z,3.23
2019-05-18T00:25:53.886Z,6.03
2019-05-18T00:28:25.000Z,6.10
2019-05-18T00:30:55.856Z,3.50
2019-05-18T00:33:26.620Z,3.53
2019-05-18T00:35:57.117Z,4.43
2019-05-18T00:38:27.788Z,6.00
2019-05-18T00:40:58.646Z,11.27
2019-05-18T00:43:29.180Z,6.27
2019-05-18T00:45:59.793Z,8.10
2019-05-18T00:48:30.577Z,3.33
2019-05-18T00:51:01.049Z,7.53
2019-05-18T00:53:31.582Z,6.37
2019-05-18T00:56:02.235Z,10.10
2019-05-18T00:58:32.861Z,6.47
2019-05-18T01:01:03.337Z,7.67
2019-05-18T01:03:34.125Z,7.30
2019-05-18T01:06:04.735Z,5.97
2019-05-18T01:08:35.450Z,5.43
2019-05-18T01:11:06.173Z,6.10
2019-05-18T01:13:36.804Z,6.13
2019-05-18T01:16:07.220Z,5.10
2019-05-18T01:18:37.742Z,5.50
2019-05-18T01:21:08.320Z,5.40
2019-05-18T01:23:38.800Z,5.37
2019-05-18T01:26:12.841Z,5.10
2019-05-18T01:28:43.422Z,10.50
2019-05-18T01:31:14.203Z,4.73
2019-05-18T01:33:44.928Z,6.70
2019-05-18T01:36:15.760Z,6.60
2019-05-18T01:38:46.885Z,4.90
2019-05-18T01:41:20.572Z,9.73
2019-05-18T01:43:51.324Z,8.13
2019-05-18T01:46:22.056Z,6.43
2019-05-18T01:48:52.670Z,7.13
2019-05-18T01:51:23.516Z,9.03
2019-05-18T01:53:54.049Z,7.67
2019-05-18T01:56:24.737Z,8.33
2019-05-18T01:58:55.178Z,7.33
2019-05-18T02:04:29.426Z,6.33
2019-05-18T02:07:00.547Z,7.07
2019-05-18T02:09:31.176Z,5.13
2019-05-18T02:12:01.856Z,11.03
2019-05-18T02:14:32.708Z,6.33
2019-05-18T02:17:04.176Z,9.37
2019-05-18T02:19:34.812Z,6.43
2019-05-18T02:22:05.267Z,7.53
2019-05-18T02:24:35.718Z,5.10
2019-05-18T02:27:06.565Z,7.13
2019-05-18T02:29:37.412Z,6.73
2019-05-18T02:32:08.160Z,8.93
2019-05-18T02:34:38.596Z,8.87
2019-05-18T02:37:09.796Z,9.20
2019-05-18T02:39:40.539Z,9.90
2019-05-18T02:42:11.448Z,8.63
2019-05-18T02:44:42.160Z,7.00
2019-05-18T02:47:12.864Z,11.13
2019-05-18T02:49:43.342Z,8.53
2019-05-18T02:52:14.205Z,9.17
2019-05-18T02:54:44.698Z,6.53
2019-05-18T02:57:15.565Z,8.40
2019-05-18T02:59:46.176Z,6.23
2019-05-18T03:02:16.901Z,6.17
2019-05-18T03:04:47.557Z,9.90
2019-05-18T03:07:18.345Z,7.93
2019-05-18T03:09:49.199Z,6.83
2019-05-18T03:12:19.819Z,6.23
2019-05-18T03:14:51.369Z,9.23
2019-05-18T03:17:22.662Z,7.83
2019-05-18T03:19:53.276Z,10.37
2019-05-18T03:22:24.270Z,8.87
2019-05-18T03:24:57.875Z,11.73
2019-05-18T03:27:31.195Z,7.63
2019-05-18T03:30:01.623Z,8.13
2019-05-18T03:32:32.794Z,9.07
2019-05-18T03:35:10.107Z,9.93
2019-05-18T03:37:41.153Z,7.80
2019-05-18T03:40:11.780Z,8.17
2019-05-18T03:42:42.728Z,9.17
2019-05-18T03:45:16.403Z,11.07
2019-05-18T03:47:47.931Z,10.27
2019-05-18T03:50:19.066Z,9.60
2019-05-18T03:52:52.693Z,6.83
2019-05-18T03:55:23.325Z,11.83
2019-05-18T03:57:55.563Z,10.17
2019-05-18T04:00:28.241Z,9.20
2019-05-18T04:02:59.222Z,10.37
2019-05-18T04:05:36.444Z,10.10
2019-05-18T04:08:09.898Z,11.97
2019-05-18T04:10:40.738Z,12.93
2019-05-18T04:13:11.467Z,13.37
2019-05-18T04:15:42.437Z,10.13
2019-05-18T04:18:13.241Z,9.47
2019-05-18T04:20:44.011Z,14.80
2019-05-18T04:23:14.815Z,13.67
2019-05-18T04:25:45.692Z,12.07
2019-05-18T04:28:16.447Z,11.40
2019-05-18T04:30:47.690Z,15.83
2019-05-18T04:33:18.421Z,14.23
2019-05-18T04:35:55.029Z,14.37
2019-05-18T04:38:28.708Z,15.33
2019-05-18T04:40:59.816Z,12.47
2019-05-18T04:43:30.916Z,13.80
2019-05-18T04:46:12.517Z,13.03
2019-05-18T04:48:46.688Z,13.10
2019-05-18T04:51:18.073Z,13.03
2019-05-18T04:54:18.192Z,10.87
2019-05-18T04:56:52.959Z,16.60
2019-05-18T04:59:24.239Z,11.40
2019-05-18T05:01:54.967Z,10.87
2019-05-18T05:04:29.372Z,11.63
2019-05-18T05:06:59.934Z,10.63
2019-05-18T05:09:30.676Z,13.07
2019-05-18T05:12:01.557Z,12.47
2019-05-18T05:14:32.358Z,12.23
2019-05-18T05:17:02.969Z,9.57
2019-05-18T05:22:08.176Z,11.70
2019-05-18T05:24:42.123Z,11.43
2019-05-18T05:27:15.356Z,10.13
2019-05-18T05:29:54.910Z,11.17
2019-05-18T05:32:27.526Z,8.50
2019-05-18T05:35:00.832Z,9.67
2019-05-18T05:37:32.478Z,9.57
2019-05-18T05:40:03.731Z,8.93
2019-05-18T05:42:46.241Z,10.30
2019-05-18T05:45:17.133Z,11.33
2019-05-18T05:47:48.395Z,9.70
2019-05-18T05:50:35.340Z,10.03
2019-05-18T05:53:08.497Z,11.17
2019-05-18T05:55:48.553Z,8.63
2019-05-18T05:58:29.273Z,9.07
2019-05-18T06:01:00.050Z,9.73
2019-05-18T06:03:30.657Z,10.23
2019-05-18T06:06:01.344Z,10.87
2019-05-18T06:08:37.084Z,10.07
2019-05-18T06:11:09.715Z,11.50
2019-05-18T06:13:41.400Z,12.03
2019-05-18T06:16:21.848Z,12.40
2019-05-18T06:18:52.700Z,8.37
2019-05-18T06:21:23.363Z,10.23
2019-05-18T06:23:53.832Z,8.13
2019-05-18T06:26:24.605Z,8.90
2019-05-18T06:28:55.034Z,8.40
2019-05-18T06:31:25.375Z,8.57
2019-05-18T06:33:56.082Z,9.53
2019-05-18T06:36:26.467Z,10.03
2019-05-18T06:38:57.120Z,9.50
2019-05-18T06:41:28.552Z,8.77
2019-05-18T06:43:59.175Z,10.97
2019-05-18T06:46:29.893Z,10.97
2019-05-18T06:49:00.442Z,11.30
2019-05-18T06:51:31.767Z,9.07
2019-05-18T06:54:02.528Z,8.43
2019-05-18T06:56:34.381Z,9.23
2019-05-18T06:59:08.455Z,9.30
2019-05-18T07:01:39.687Z,10.20
2019-05-18T07:04:10.183Z,9.37
2019-05-18T07:06:40.743Z,9.27
2019-05-18T07:09:14.162Z,9.17
2019-05-18T07:11:43.392Z,10.30
2019-05-18T07:14:25.383Z,9.50
2019-05-18T07:16:45.995Z,8.87
2019-05-18T07:19:16.714Z,8.40
2019-05-18T07:21:47.048Z,9.83
2019-05-18T07:24:17.646Z,9.70
2019-05-18T07:26:47.992Z,11.27
2019-05-18T07:29:18.394Z,10.07
2019-05-18T07:31:48.712Z,9.47
2019-05-18T07:34:19.120Z,11.27
2019-05-18T07:36:49.507Z,10.53
2019-05-18T07:39:20.043Z,8.83
2019-05-18T07:41:50.583Z,9.63
2019-05-18T07:44:21.095Z,8.77
2019-05-18T07:46:51.454Z,9.00
2019-05-18T07:49:22.045Z,9.77
2019-05-18T07:51:52.430Z,11.07
2019-05-18T07:54:23.119Z,9.23
2019-05-18T07:56:53.641Z,9.73
2019-05-18T07:59:25.717Z,9.83
2019-05-18T08:01:56.879Z,9.33
2019-05-18T08:04:27.638Z,10.30
2019-05-18T08:06:58.007Z,9.90
2019-05-18T08:09:28.602Z,11.03
2019-05-18T08:11:58.955Z,9.37
2019-05-18T08:14:29.394Z,9.00
2019-05-18T08:16:59.832Z,8.97
2019-05-18T08:19:30.491Z,9.07
2019-05-18T08:22:00.894Z,9.27
2019-05-18T08:24:31.632Z,9.17
2019-05-18T08:27:02.561Z,9.87
2019-05-18T08:29:33.239Z,9.23
2019-05-18T08:32:03.611Z,10.23
2019-05-18T08:34:34.249Z,10.43
2019-05-18T08:37:04.699Z,10.10
2019-05-18T08:39:35.339Z,8.07
2019-05-18T08:42:05.821Z,8.27
2019-05-18T08:44:36.619Z,9.10
2019-05-18T08:47:06.953Z,8.87
2019-05-18T08:49:37.699Z,8.70
2019-05-18T08:52:08.815Z,9.03
2019-05-18T08:54:40.008Z,8.87
2019-05-18T08:57:11.176Z,9.30
2019-05-18T08:59:41.884Z,8.93
2019-05-18T09:02:12.839Z,7.80
2019-05-18T09:04:43.556Z,8.63
2019-05-18T09:07:14.187Z,8.90
2019-05-18T09:09:44.968Z,7.70
2019-05-18T09:12:15.619Z,8.13
2019-05-18T09:14:46.589Z,7.80
2019-05-18T09:17:17.259Z,7.83
2019-05-18T09:19:47.844Z,6.90
2019-05-18T09:22:23.312Z,6.07
2019-05-18T09:24:50.945Z,6.03
2019-05-18T09:27:21.667Z,7.00
2019-05-18T09:29:52.191Z,6.23
2019-05-18T09:32:22.990Z,6.30
2019-05-18T09:34:53.996Z,7.03
2019-05-18T09:37:34.443Z,6.53
2019-05-18T09:40:18.740Z,6.60
2019-05-18T09:42:53.100Z,7.07
2019-05-18T09:45:25.762Z,7.70
2019-05-18T09:48:03.101Z,6.67
2019-05-18T09:50:37.542Z,6.73
2019-05-18T09:53:11.785Z,6.67
2019-05-18T09:55:43.445Z,6.13
2019-05-18T09:58:17.989Z,5.90
2019-05-18T10:00:51.687Z,6.10
2019-05-18T10:03:22.633Z,6.53
2019-05-18T10:05:53.851Z,6.93
2019-05-18T10:08:24.552Z,6.53
2019-05-18T10:10:58.144Z,6.67
2019-05-18T10:15:58.483Z,5.47
2019-05-18T10:18:29.249Z,5.80
2019-05-18T10:20:59.918Z,6.23
2019-05-18T10:23:30.963Z,5.93
2019-05-18T10:26:01.991Z,6.00
2019-05-18T10:28:36.021Z,5.63
2019-05-18T10:31:06.604Z,5.73
2019-05-18T10:33:37.343Z,5.73
2019-05-18T10:36:11.543Z,4.67
2019-05-18T10:38:40.971Z,5.70
2019-05-18T10:41:11.874Z,5.33
2019-05-18T10:43:41.662Z,4.77
2019-05-18T10:46:13.601Z,5.47
2019-05-18T10:48:47.464Z,5.07
2019-05-18T10:51:19.815Z,4.40
2019-05-18T10:53:50.797Z,5.50
2019-05-18T10:56:22.663Z,4.60
2019-05-18T10:58:56.221Z,4.33
2019-05-18T11:01:26.860Z,4.30
2019-05-18T11:03:57.759Z,4.83
2019-05-18T11:06:28.598Z,4.40
2019-05-18T11:08:59.117Z,4.43
2019-05-18T11:11:30.234Z,4.63
2019-05-18T11:14:01.787Z,4.07
2019-05-18T11:16:32.693Z,4.13
2019-05-18T11:19:04.875Z,4.77
2019-05-18T11:21:35.452Z,3.90
2019-05-18T11:24:06.079Z,4.27
2019-05-18T11:26:37.207Z,4.03
2019-05-18T11:29:08.176Z,4.00
2019-05-18T11:31:38.861Z,4.53
2019-05-18T11:34:12.323Z,4.07
2019-05-18T11:36:43.420Z,3.63
2019-05-18T11:39:15.595Z,4.47
2019-05-18T11:41:46.628Z,4.63
2019-05-18T11:44:17.501Z,4.50
2019-05-18T11:46:47.916Z,4.23
2019-05-18T11:49:18.821Z,4.40
2019-05-18T11:51:49.633Z,4.43
2019-05-18T11:54:20.741Z,4.53
2019-05-18T11:56:51.684Z,5.20
2019-05-18T11:59:22.523Z,4.83
2019-05-18T12:01:53.123Z,4.50
2019-05-18T12:04:23.655Z,4.77
2019-05-18T12:06:54.413Z,5.30
2019-05-18T12:09:25.163Z,5.00
2019-05-18T12:11:55.832Z,5.30
2019-05-18T12:14:26.372Z,5.93
2019-05-18T12:16:57.197Z,5.43
2019-05-18T12:19:28.122Z,5.23
2019-05-18T12:21:58.892Z,5.23
2019-05-18T12:24:29.439Z,5.60
2019-05-18T12:27:00.258Z,5.47
2019-05-18T12:29:30.901Z,5.80
2019-05-18T12:32:02.328Z,5.07
2019-05-18T12:34:33.095Z,5.43
2019-05-18T12:37:03.685Z,5.80
2019-05-18T12:39:34.223Z,6.03
2019-05-18T12:42:07.556Z,5.60
2019-05-18T12:44:37.337Z,5.63
2019-05-18T12:47:08.435Z,5.17
2019-05-18T12:49:39.172Z,5.70
2019-05-18T12:52:09.695Z,4.97
2019-05-18T12:54:46.543Z,5.93
2019-05-18T12:57:12.834Z,5.17
2019-05-18T12:59:44.403Z,5.43
2019-05-18T13:02:15.092Z,6.37
2019-05-18T13:04:45.703Z,4.63
2019-05-18T13:07:16.175Z,4.20
2019-05-18T13:09:46.926Z,5.33
2019-05-18T13:12:17.833Z,4.70
2019-05-18T13:14:48.500Z,4.43
2019-05-18T13:17:21.299Z,4.90
2019-05-18T13:19:51.161Z,5.00
2019-05-18T13:22:21.992Z,5.13
2019-05-18T13:24:52.518Z,5.20
2019-05-18T13:27:38.416Z,5.37
2019-05-18T13:29:55.858Z,4.97
2019-05-18T13:32:26.725Z,4.43
2019-05-18T13:34:57.090Z,5.37
2019-05-18T13:37:27.859Z,4.97
2019-05-18T13:39:58.551Z,4.87
2019-05-18T13:42:29.259Z,4.93
2019-05-18T13:44:59.731Z,5.03
2019-05-18T13:47:31.370Z,4.70
2019-05-18T13:50:02.007Z,4.60
2019-05-18T13:52:32.781Z,4.70
2019-05-18T13:55:05.164Z,4.53
2019-05-18T13:57:39.778Z,4.83
2019-05-18T14:00:11.032Z,4.27
2019-05-18T14:02:42.017Z,4.70
2019-05-18T14:05:13.319Z,4.40
2019-05-18T14:07:43.919Z,4.73
2019-05-18T14:10:14.579Z,4.50
2019-05-18T14:12:45.300Z,3.60
2019-05-18T14:15:16.093Z,3.53
2019-05-18T14:17:46.496Z,4.43
2019-05-18T14:20:17.068Z,4.67
2019-05-18T14:22:47.715Z,3.77
2019-05-18T14:25:19.679Z,3.97
2019-05-18T14:27:50.455Z,3.63
2019-05-18T14:30:21.695Z,4.20
2019-05-18T14:32:52.161Z,4.07
2019-05-18T14:35:22.739Z,4.20
2019-05-18T14:37:53.454Z,4.70
2019-05-18T14:40:23.927Z,4.20
2019-05-18T14:42:54.684Z,4.13
2019-05-18T14:45:25.075Z,4.00
2019-05-18T14:47:55.615Z,4.20
2019-05-18T14:50:28.777Z,4.20
2019-05-18T14:52:59.619Z,4.00
2019-05-18T14:55:33.768Z,4.20
2019-05-18T14:58:02.627Z,4.00
2019-05-18T15:00:33.314Z,4.40
2019-05-18T15:03:03.864Z,4.00
2019-05-18T15:05:34.315Z,4.23
2019-05-18T15:08:04.740Z,4.10
2019-05-18T15:10:35.222Z,4.43
2019-05-18T15:13:08.904Z,3.83
2019-05-18T15:15:39.409Z,4.13
2019-05-18T15:18:09.816Z,4.30
2019-05-18T15:20:40.623Z,4.47
2019-05-18T15:23:11.009Z,3.97
2019-05-18T15:25:50.077Z,3.90
2019-05-18T15:28:13.815Z,4.37
2019-05-18T15:30:44.373Z,4.40
2019-05-18T15:33:14.679Z,3.97
2019-05-18T15:35:45.298Z,4.40
2019-05-18T15:38:15.868Z,4.70
2019-05-18T15:40:46.515Z,4.20
2019-05-18T15:43:17.125Z,4.10
2019-05-18T15:45:48.040Z,4.37
2019-05-18T15:48:20.157Z,4.50
2019-05-18T15:50:53.292Z,4.77
2019-05-18T15:53:23.876Z,4.60
2019-05-18T15:56:05.205Z,4.57
2019-05-18T15:58:27.360Z,5.07
2019-05-18T16:00:58.064Z,5.00
2019-05-18T16:03:28.864Z,4.50
2019-05-18T16:05:59.424Z,5.00
2019-05-18T16:08:31.349Z,4.27
2019-05-18T16:11:01.921Z,5.20
2019-05-18T16:13:33.067Z,5.50
2019-05-18T16:16:03.712Z,5.10
2019-05-18T16:18:34.539Z,5.00
2019-05-18T16:21:05.512Z,5.67
2019-05-18T16:23:36.303Z,5.53
2019-05-18T16:26:20.782Z,5.00
2019-05-18T16:28:39.111Z,4.93
2019-05-18T16:31:09.967Z,5.00
2019-05-18T16:33:40.764Z,5.40
2019-05-18T16:36:11.364Z,5.70
2019-05-18T16:38:41.879Z,6.00
2019-05-18T16:41:12.451Z,5.17
2019-05-18T16:43:43.299Z,5.40
2019-05-18T16:46:14.100Z,5.70
2019-05-18T16:48:44.810Z,5.60
2019-05-18T16:51:15.466Z,5.27
2019-05-18T16:53:49.876Z,5.60
2019-05-18T16:56:18.167Z,5.53
2019-05-18T16:58:48.869Z,5.50
2019-05-18T17:01:19.685Z,5.07
2019-05-18T17:03:50.307Z,5.50
2019-05-18T17:06:20.954Z,5.60
2019-05-18T17:08:52.496Z,5.93
2019-05-18T17:11:23.073Z,5.80
2019-05-18T17:13:53.883Z,6.10
2019-05-18T17:16:24.636Z,6.67
2019-05-18T17:18:55.207Z,6.70
2019-05-18T17:21:25.938Z,5.77
2019-05-18T17:23:56.605Z,6.17
2019-05-18T17:26:27.291Z,5.90
2019-05-18T17:28:58.276Z,5.97
2019-05-18T17:31:29.138Z,5.97
2019-05-18T17:33:59.906Z,5.70
2019-05-18T17:36:30.721Z,5.73
2019-05-18T17:39:01.276Z,6.03
2019-05-18T17:41:32.712Z,5.77
2019-05-18T17:44:03.495Z,6.27
2019-05-18T17:46:34.447Z,5.50
2019-05-18T17:49:05.089Z,5.70
2019-05-18T17:51:36.419Z,4.93
2019-05-18T17:54:07.272Z,6.10
2019-05-18T17:56:38.410Z,6.90
2019-05-18T17:59:09.239Z,6.67
2019-05-18T18:01:40.478Z,6.63
2019-05-18T18:04:14.639Z,6.63
2019-05-18T18:06:46.704Z,6.13
2019-05-18T18:09:18.036Z,6.03
2019-05-18T18:11:51.072Z,7.03
2019-05-18T18:14:22.234Z,6.33
2019-05-18T18:16:53.039Z,5.47
2019-05-18T18:19:23.629Z,6.27
2019-05-18T18:21:55.371Z,6.27
2019-05-18T18:24:26.116Z,6.83
2019-05-18T18:26:56.905Z,7.07
2019-05-18T18:29:27.875Z,6.40
2019-05-18T18:31:59.391Z,5.87
2019-05-18T18:34:33.455Z,5.83
2019-05-18T18:37:06.070Z,5.97
2019-05-18T18:39:36.844Z,6.00
2019-05-18T18:42:08.050Z,6.40
2019-05-18T18:44:49.479Z,8.70
2019-05-18T18:47:20.601Z,6.13
2019-05-18T18:49:52.789Z,7.47
2019-05-18T18:52:26.666Z,6.53
2019-05-18T18:55:03.836Z,7.10
2019-05-18T18:57:41.197Z,6.80
2019-05-18T19:00:09.129Z,7.90
2019-05-18T19:02:48.681Z,6.73
2019-05-18T19:05:19.632Z,7.20
2019-05-18T19:07:51.292Z,6.13
2019-05-18T19:10:22.071Z,6.60
2019-05-18T19:12:53.372Z,7.80
2019-05-18T19:15:25.211Z,7.17
2019-05-18T19:20:25.995Z,6.60
2019-05-18T19:22:56.380Z,7.40
2019-05-18T19:25:27.281Z,7.90
2019-05-18T19:27:57.940Z,7.17
2019-05-18T19:30:28.771Z,8.20
2019-05-18T19:32:59.231Z,7.80
2019-05-18T19:35:29.888Z,9.27
2019-05-18T19:38:00.412Z,8.20
2019-05-18T19:40:31.271Z,7.63
2019-05-18T19:43:01.921Z,8.87
2019-05-18T19:45:32.919Z,7.67
2019-05-18T19:48:03.585Z,6.80
2019-05-18T19:50:34.248Z,7.57
2019-05-18T19:53:04.742Z,7.90
2019-05-18T19:55:35.271Z,7.93
2019-05-18T19:58:08.748Z,8.80
2019-05-18T20:00:37.840Z,7.77
2019-05-18T20:03:08.222Z,8.83
2019-05-18T20:05:38.628Z,8.77
2019-05-18T20:08:09.963Z,8.35
2019-05-18T20:10:40.316Z,8.50
2019-05-18T20:13:10.716Z,7.63
2019-05-18T20:15:41.507Z,7.80
2019-05-18T20:18:11.904Z,8.33
2019-05-18T20:20:42.535Z,8.83
2019-05-18T20:23:12.920Z,7.17
2019-05-18T20:25:43.826Z,7.10
2019-05-18T20:28:23.432Z,7.27
2019-05-18T20:30:46.672Z,7.97
2019-05-18T20:33:18.132Z,6.67
2019-05-18T20:35:49.845Z,7.27
2019-05-18T20:38:20.172Z,10.73
2019-05-18T20:40:50.574Z,7.63
2019-05-18T20:43:22.196Z,7.47
2019-05-18T20:45:52.775Z,6.73
2019-05-18T20:48:23.366Z,7.73
2019-05-18T20:50:53.720Z,7.13
2019-05-18T20:53:24.132Z,8.00
2019-05-18T20:55:55.783Z,7.77
2019-05-18T20:58:38.880Z,9.23
2019-05-18T21:00:58.363Z,9.87
2019-05-18T21:03:29.063Z,8.10
2019-05-18T21:05:59.647Z,8.70
2019-05-18T21:08:31.099Z,8.03
2019-05-18T21:11:01.477Z,8.07
2019-05-18T21:13:32.980Z,8.90
2019-05-18T21:16:03.379Z,8.27
2019-05-18T21:18:33.889Z,8.67
2019-05-18T21:21:04.259Z,7.80
2019-05-18T21:23:34.589Z,8.53
2019-05-18T21:26:05.209Z,8.70
2019-05-18T21:28:35.586Z,9.87
2019-05-18T21:31:06.135Z,8.57
2019-05-18T21:33:36.656Z,8.13
2019-05-18T21:36:07.256Z,10.07
2019-05-18T21:38:37.745Z,10.60
2019-05-18T21:41:08.340Z,8.90
2019-05-18T21:43:38.783Z,10.17
2019-05-18T21:46:09.390Z,10.37
2019-05-18T21:48:39.763Z,10.53
2019-05-18T21:51:10.283Z,10.83
2019-05-18T21:53:40.723Z,9.23
2019-05-18T21:56:11.228Z,10.23
2019-05-18T21:58:41.571Z,10.17
2019-05-18T22:01:12.263Z,11.47
2019-05-18T22:03:45.877Z,10.40
2019-05-18T22:06:14.863Z,10.97
2019-05-18T22:08:45.368Z,9.63
2019-05-18T22:11:15.711Z,11.60
2019-05-18T22:13:46.268Z,9.50
2019-05-18T22:16:16.919Z,9.10
2019-05-18T22:18:47.557Z,9.50
2019-05-18T22:21:17.908Z,10.80
2019-05-18T22:23:48.691Z,10.97
2019-05-18T22:26:19.112Z,11.03
2019-05-18T22:28:49.914Z,12.10
2019-05-18T22:31:20.398Z,10.77
2019-05-18T22:33:51.199Z,15.70
2019-05-18T22:36:22.676Z,10.33
2019-05-18T22:38:53.454Z,10.83
2019-05-18T22:41:23.943Z,9.63
2019-05-18T22:43:54.565Z,15.00
2019-05-18T22:46:25.240Z,12.37
2019-05-18T22:48:56.245Z,17.27
2019-05-18T22:51:26.777Z,12.87
2019-05-18T22:53:57.888Z,11.30
2019-05-18T22:56:28.581Z,14.20
2019-05-18T22:58:59.372Z,14.93
2019-05-18T23:01:30.048Z,14.07
2019-05-18T23:04:00.850Z,18.70
2019-05-18T23:06:31.266Z,13.23
2019-05-18T23:09:02.043Z,14.70
2019-05-18T23:11:34.251Z,12.03
2019-05-18T23:14:05.160Z,13.17
2019-05-18T23:16:36.135Z,11.47
2019-05-18T23:19:07.189Z,12.77
2019-05-18T23:21:37.802Z,11.90
2019-05-18T23:24:08.862Z,12.40
2019-05-18T23:26:44.033Z,16.63
2019-05-18T23:29:14.645Z,20.10
2019-05-18T23:31:45.477Z,25.20
2019-05-18T23:34:16.891Z,18.30
2019-05-18T23:36:50.771Z,19.20
2019-05-18T23:39:21.665Z,19.00
2019-05-18T23:41:52.247Z,14.83
2019-05-18T23:44:24.087Z,14.50
2019-05-18T23:46:57.459Z,13.43
2019-05-18T23:49:28.269Z,13.53
2019-05-18T23:51:58.844Z,15.30
2019-05-18T23:54:29.564Z,13.00
2019-05-18T23:57:00.059Z,13.03
2019-05-18T23:59:30.908Z,12.67
